CYDF/YDF METAR and TAF weather

Enter ICAO airport designator
Station Type Date Time Source
CYDF METAR 2020/12/05 04:00 UTC NOAA

CYDF 050400Z 16004KT 090V190 15SM SCT024 BKN070 OVC100 03/02 A2999 RMK SC4AC2AC2 SLP158


Station Type Date Time Source
CYDF Decoded METAR 2020/12/05 04:00 UTC NOAA

Deer Lake, Nfld., Canada (CYDF) 49-13N 057-24W 22M
Dec 04, 2020 - 11:00 PM EST / 2020.12.05 0400 UTC
Wind: from the SSE (160 degrees) at 5 MPH (4 KT) (direction variable):0
Visibility: 15 mile(s):0
Sky conditions: overcast
Temperature: 37 F (3 C)
Dew Point: 35 F (2 C)
Relative Humidity: 93%
Pressure (altimeter): 29.99 in. Hg (1015 hPa)
ob: CYDF 050400Z 16004KT 090V190 15SM SCT024 BKN070 OVC100 03/02 A2999 RMK SC4AC2AC2 SLP158
cycle: 4

Station Type Date Time Source
CYDF TAF 2020/12/05 02:39 UTC NOAA

TAF CYDF 050138Z 0502/0514 VRB03KT P6SM SCT020 BKN030
TEMPO 0502/0507 BKN020 OVC030
BECMG 0502/0504 20006KT
FM050700 20008KT 5SM -SHRA BR OVC015
TEMPO 0507/0512 P6SM NSW SCT015 OVC025
FM051200 24010KT 6SM -RA BR SCT008 OVC012 PROB30 0512/0514 3SM -SHRA BR BKN008 OVC012
RMK NXT FCST BY 050800Z

Example: see airport list